Etusivu
METAR-TAF:

METAR-TAF

Lentoasemat :

Yapin kansainvälinen lentoasema

Yap, Mikronesia

Leveyspiiri: 09-29N, Pituuspiiri: 138-05E, korkeus merenpinnasta: 28 m

Tämänhetkinen sää

Tämä raportti tehtiin 36 minuuttia sitten, kello 07.50 UTC
Tuuli 4 kn eri suunnista
Lämpötila 29°C
Kosteus 84%
Ilmanpaine 1005 hPa
Näkyvyys: 19.3 km
Hajanaisia pilviä 1600 ft:n korkeudessa, Kasvava cumulus-pilvi.
Hajanaisia pilviä 13000 ft:n korkeudessa
Hajonneita pilviä 30000 ft:n korkeudessa

METAR: PTYA 200750Z VRB04KT 12SM SCT016TCU SCT130 BKN300 29/26 A2969 RMK TCU SW SLP056 T02870256

Aika: 18:26 (08:26 UTC)

Sääennuste

Tämä raportti tehtiin 3 tuntia ja 6 minuuttia sitten, kello 05.20 UTC
Ennuste voimassa 20. päivästä klo 06 UTC - 21. päivään klo 06 UTC
Tuuli 9 kn lännestä/lounaasta
Näkyvyys: 10 km
Hajanaisia pilviä 1600 ft:n korkeudessa
Hajonneita pilviä 13000 ft:n korkeudessa
sadekuuroja näköpiirissä

TAF: PTYA 200520Z 2006/2106 25009KT P6SM VCSH SCT016 BKN130

Säähavainnot ja -ennusteet yli 4000 lentoasemalta (METAR- ja TAF-raportit).

Käytössä olevat sääasemat on merkitty karttaan keltaisilla ja punaisilla pisteillä.

Aseta hiiri pisteen päälle nähdäksesi sääaseman nimen.

Klikkaa sitten nähdäksesi säähavainnot ja -ennusteet.

Kartan vaihtaminen: klikkaa mustalla rastilla varustettuja vihreitä pisteitä, niin voit zoomata sisään; viivalla varustettua vihreää pistettä, niin voit zoomata ulos tai vihreitä nuolia, niin pääset viereisille kartoille.


METAR-TAF: